Terminal Aerodrome Forecast
Issued by NWS

Home | Current Version | Previous Version | Text Only | Print | Product List | Glossary On
Versions: 1 2 3 4 5 6 7 8 9 10 11 12 13 14 15 16
000
FTUS44 KCRP 290535
TAFALI
TAF
KALI 290535Z 2906/3006 15007KT P6SM FEW015
     FM290900 15005KT 5SM BR SCT015
      TEMPO 2910/2914 2SM BR BKN015
     FM291400 14012KT P6SM SCT020
     FM292000 13015G20KT P6SM SCT040
     FM300200 15010KT P6SM SKC=

USA.gov is the U.S. government's official web portal to all federal, state and local government web resources and services.